Time;durP1;ratioP1;P1;durP2;ratioP2;P2;SDS_P1;SDS_P2;PMS_P1;PMS_P2;Temp;Humidity;BMP_temperature;BMP_pressure;BME280_temperature;BME280_humidity;BME280_pressure;Samples;Min_cycle;Max_cycle;Signal;HPM_P1;HPM_P2
2022/03/04 00:01:13;;;;;;;37.13;19.38;;;0.90;99.90;;;;;;5025668;28;20628;-56
2022/03/04 00:03:39;;;;;;;35.28;20.52;;;0.90;99.90;;;;;;5049726;28;20483;-52
2022/03/04 00:06:05;;;;;;;34.45;19.48;;;0.90;99.90;;;;;;5060368;28;20041;-56
2022/03/04 00:08:31;;;;;;;31.75;20.67;;;0.80;99.90;;;;;;5037375;28;20061;-55
2022/03/04 00:10:57;;;;;;;35.75;20.70;;;0.90;99.90;;;;;;5053246;28;20052;-55
2022/03/04 00:13:23;;;;;;;33.47;19.33;;;0.80;99.90;;;;;;5034023;28;20061;-56
2022/03/04 00:15:49;;;;;;;32.55;18.58;;;0.80;99.90;;;;;;5047207;28;20105;-52
2022/03/04 00:18:15;;;;;;;33.75;20.10;;;0.80;99.90;;;;;;5043883;28;20048;-54
2022/03/04 00:20:41;;;;;;;32.95;19.13;;;0.70;99.90;;;;;;5021861;28;20551;-56
2022/03/04 00:23:07;;;;;;;34.30;19.08;;;0.70;99.90;;;;;;5039639;28;20088;-53
2022/03/04 00:25:34;;;;;;;35.78;20.02;;;0.70;99.90;;;;;;5062921;28;20137;-56
2022/03/04 00:27:59;;;;;;;32.83;17.88;;;0.60;99.90;;;;;;5042156;28;20060;-60
2022/03/04 00:30:26;;;;;;;31.33;18.77;;;0.60;99.90;;;;;;5052904;28;20576;-56
2022/03/04 00:32:51;;;;;;;34.13;18.75;;;0.60;99.90;;;;;;5054888;28;20056;-56
2022/03/04 00:35:18;;;;;;;32.50;18.77;;;0.60;99.90;;;;;;5060224;28;20113;-56
2022/03/04 00:37:44;;;;;;;34.08;19.45;;;0.60;99.90;;;;;;5052838;28;20040;-51
2022/03/04 00:40:11;;;;;;;27.70;17.10;;;0.60;99.90;;;;;;5040045;28;20151;-53
2022/03/04 00:42:37;;;;;;;30.02;17.70;;;0.60;99.90;;;;;;5050262;28;20040;-56
2022/03/04 00:45:03;;;;;;;29.80;17.35;;;0.50;99.90;;;;;;5031197;28;20045;-56
2022/03/04 00:47:29;;;;;;;33.78;18.65;;;0.50;99.90;;;;;;5039983;28;20526;-56
2022/03/04 00:49:55;;;;;;;29.65;16.75;;;0.50;99.90;;;;;;5061178;28;20044;-56
2022/03/04 00:52:21;;;;;;;28.98;17.23;;;0.40;99.90;;;;;;5049474;28;20045;-55
2022/03/04 00:54:46;;;;;;;32.08;17.23;;;0.40;99.90;;;;;;5042877;28;20056;-56
2022/03/04 00:57:12;;;;;;;29.73;16.67;;;0.40;99.90;;;;;;5017683;28;20075;-55
2022/03/04 00:59:38;;;;;;;31.95;16.70;;;0.40;99.90;;;;;;5029240;28;20171;-55
2022/03/04 01:02:04;;;;;;;26.52;14.77;;;0.40;99.90;;;;;;5047608;28;20053;-54
2022/03/04 01:04:30;;;;;;;31.50;18.02;;;0.30;99.90;;;;;;5036170;28;20045;-55
2022/03/04 01:06:55;;;;;;;27.63;16.23;;;0.30;99.90;;;;;;5048021;28;20048;-55
2022/03/04 01:09:21;;;;;;;28.58;17.20;;;0.30;99.90;;;;;;5034484;28;20044;-55
2022/03/04 01:11:47;;;;;;;26.98;15.82;;;0.30;99.90;;;;;;5030534;28;20052;-46
2022/03/04 01:14:13;;;;;;;28.58;17.10;;;0.30;99.90;;;;;;5054003;28;20041;-55
2022/03/04 01:16:39;;;;;;;27.52;15.77;;;0.30;99.90;;;;;;5055547;28;20116;-55
2022/03/04 01:19:05;;;;;;;25.65;15.32;;;0.20;99.90;;;;;;5031976;28;20043;-55
2022/03/04 01:21:31;;;;;;;28.52;15.63;;;0.20;99.90;;;;;;5047597;28;20067;-53
2022/03/04 01:23:56;;;;;;;24.80;14.77;;;0.20;99.90;;;;;;5029033;28;20486;-56
2022/03/04 01:26:22;;;;;;;23.45;14.07;;;0.20;99.90;;;;;;5047356;28;20039;-55
2022/03/04 01:28:48;;;;;;;26.17;15.35;;;0.10;99.90;;;;;;5048982;28;20044;-55
2022/03/04 01:31:17;;;;;;;26.77;14.43;;;0.10;99.90;;;;;;5045369;28;20056;-55
2022/03/04 01:33:42;;;;;;;29.17;15.90;;;0.10;99.90;;;;;;5038360;28;20415;-54
2022/03/04 01:36:08;;;;;;;24.08;14.70;;;0.10;99.90;;;;;;5023855;28;20053;-58
2022/03/04 01:38:34;;;;;;;27.63;15.85;;;0.10;99.90;;;;;;5028689;28;20053;-55
2022/03/04 01:41:01;;;;;;;25.20;15.07;;;0.10;99.90;;;;;;5054858;28;20550;-55
2022/03/04 01:43:27;;;;;;;26.35;15.32;;;0.00;99.90;;;;;;5038932;28;20086;-55
2022/03/04 01:45:52;;;;;;;29.63;16.42;;;0.00;99.90;;;;;;5046060;28;20053;-55
2022/03/04 01:48:20;;;;;;;24.88;14.73;;;0.00;99.90;;;;;;5045914;28;20467;-55
2022/03/04 01:50:50;;;;;;;23.67;15.40;;;0.00;99.90;;;;;;5048487;28;20462;-54
2022/03/04 01:53:18;;;;;;;25.45;14.68;;;0.00;99.90;;;;;;5027380;28;20063;-55
2022/03/04 01:55:49;;;;;;;27.23;15.10;;;-0.10;99.90;;;;;;5052324;28;20044;-55
2022/03/04 01:58:15;;;;;;;23.92;14.95;;;-0.10;99.90;;;;;;5035264;28;20056;-52
2022/03/04 02:00:40;;;;;;;23.90;13.25;;;-0.10;99.90;;;;;;5038961;28;20057;-54
2022/03/04 02:03:10;;;;;;;23.73;14.40;;;-0.10;99.90;;;;;;5051892;28;20513;-54
2022/03/04 02:05:36;;;;;;;23.92;13.85;;;-0.10;99.90;;;;;;5040699;28;20049;-54
2022/03/04 02:08:02;;;;;;;27.00;14.52;;;-0.10;99.90;;;;;;5031353;28;20055;-54
2022/03/04 02:10:27;;;;;;;22.50;13.85;;;-0.20;99.90;;;;;;5049016;28;20048;-54
2022/03/04 02:12:53;;;;;;;25.73;14.32;;;-0.20;99.90;;;;;;5049897;28;20053;-55
2022/03/04 02:15:19;;;;;;;26.60;14.40;;;-0.20;99.90;;;;;;5044340;28;20037;-53
2022/03/04 02:17:45;;;;;;;25.00;14.07;;;-0.20;99.90;;;;;;5039518;28;20096;-54
2022/03/04 02:20:11;;;;;;;24.60;14.18;;;-0.20;99.90;;;;;;5030651;28;20151;-55
2022/03/04 02:22:40;;;;;;;24.83;12.80;;;-0.30;99.90;;;;;;5003109;28;20342;-54
2022/03/04 02:25:06;;;;;;;22.35;13.05;;;-0.30;99.90;;;;;;5031866;28;20053;-55
2022/03/04 02:27:33;;;;;;;22.70;13.18;;;-0.30;99.90;;;;;;5042362;28;20049;-53
2022/03/04 02:29:59;;;;;;;21.00;13.25;;;-0.30;99.90;;;;;;5059168;28;20045;-55
2022/03/04 02:32:25;;;;;;;23.85;13.57;;;-0.30;99.90;;;;;;5039576;28;20044;-55
2022/03/04 02:34:51;;;;;;;22.80;13.80;;;-0.30;99.90;;;;;;5054750;28;20041;-55
2022/03/04 02:37:18;;;;;;;21.20;13.27;;;-0.30;99.90;;;;;;5024157;28;20566;-54
2022/03/04 02:39:44;;;;;;;23.70;13.25;;;-0.30;99.90;;;;;;5036053;28;20099;-54
2022/03/04 02:42:10;;;;;;;23.77;13.38;;;-0.30;99.90;;;;;;5053102;28;20132;-57
2022/03/04 02:44:36;;;;;;;23.33;14.40;;;-0.30;99.90;;;;;;5051254;28;20152;-54
2022/03/04 02:47:02;;;;;;;24.35;13.80;;;-0.40;99.90;;;;;;5049161;28;20048;-53
2022/03/04 02:49:28;;;;;;;20.95;12.63;;;-0.40;99.90;;;;;;5045386;28;20088;-54
2022/03/04 02:51:53;;;;;;;23.38;13.30;;;-0.40;99.90;;;;;;5045386;28;20110;-54
2022/03/04 02:54:21;;;;;;;21.38;12.95;;;-0.40;99.90;;;;;;5049908;28;20040;-53
2022/03/04 02:56:46;;;;;;;21.23;13.02;;;-0.50;99.90;;;;;;5041344;28;20063;-54
2022/03/04 02:59:12;;;;;;;21.77;13.57;;;-0.50;99.90;;;;;;5031948;28;20443;-55
2022/03/04 03:01:38;;;;;;;25.75;13.93;;;-0.50;99.90;;;;;;5041195;28;20092;-54
2022/03/04 03:04:04;;;;;;;22.67;13.55;;;-0.50;99.90;;;;;;5044937;28;20050;-54
2022/03/04 03:06:29;;;;;;;22.65;13.40;;;-0.50;99.90;;;;;;5058758;28;20047;-55
2022/03/04 03:08:55;;;;;;;26.17;14.18;;;-0.50;99.90;;;;;;5036324;28;20506;-55
2022/03/04 03:11:21;;;;;;;26.23;14.65;;;-0.50;99.90;;;;;;5027831;28;20056;-54
2022/03/04 03:13:47;;;;;;;23.98;13.75;;;-0.50;99.90;;;;;;5063879;28;20438;-54
2022/03/04 03:16:13;;;;;;;23.15;13.93;;;-0.60;99.90;;;;;;5012466;28;20558;-55
2022/03/04 03:18:39;;;;;;;28.17;14.45;;;-0.60;99.90;;;;;;5035366;28;20385;-55
2022/03/04 03:21:05;;;;;;;30.40;15.23;;;-0.60;99.90;;;;;;5052835;28;20106;-53
2022/03/04 03:23:31;;;;;;;25.83;14.50;;;-0.60;99.90;;;;;;5038315;28;20542;-54
2022/03/04 03:25:57;;;;;;;23.75;14.38;;;-0.60;99.90;;;;;;5056336;28;20048;-54
2022/03/04 03:28:22;;;;;;;26.02;15.13;;;-0.70;99.90;;;;;;5038151;28;20136;-55
2022/03/04 03:30:48;;;;;;;26.77;15.25;;;-0.70;99.90;;;;;;5053412;28;20111;-55
2022/03/04 03:33:14;;;;;;;26.05;13.90;;;-0.70;99.90;;;;;;5042674;28;20052;-54
2022/03/04 03:35:41;;;;;;;26.67;13.93;;;-0.70;99.90;;;;;;5049241;28;20045;-52
2022/03/04 03:38:07;;;;;;;27.27;14.10;;;-0.70;99.90;;;;;;5054853;28;20044;-48
2022/03/04 03:40:32;;;;;;;27.85;14.65;;;-0.80;99.90;;;;;;5052276;28;20110;-55
2022/03/04 03:42:58;;;;;;;28.55;14.48;;;-0.80;99.90;;;;;;5053459;28;20457;-55
2022/03/04 03:45:24;;;;;;;25.38;13.70;;;-0.80;99.90;;;;;;5036856;28;20053;-55
2022/03/04 03:47:50;;;;;;;25.20;15.75;;;-0.80;99.90;;;;;;5048143;28;20063;-51
2022/03/04 03:50:16;;;;;;;30.05;15.32;;;-0.90;99.90;;;;;;5063000;28;20052;-55
2022/03/04 03:52:42;;;;;;;25.63;15.10;;;-0.90;99.90;;;;;;5052188;28;20052;-55
2022/03/04 03:55:08;;;;;;;29.70;14.70;;;-0.90;99.90;;;;;;5055376;28;20076;-53
2022/03/04 03:57:34;;;;;;;25.77;15.05;;;-1.00;99.90;;;;;;5040479;28;20048;-55
2022/03/04 04:00:00;;;;;;;27.95;14.77;;;-1.00;99.90;;;;;;5048484;28;20094;-55
2022/03/04 04:02:26;;;;;;;27.13;15.18;;;-1.00;99.90;;;;;;5046884;28;20049;-51
2022/03/04 04:04:51;;;;;;;29.70;15.32;;;-1.00;99.90;;;;;;5050117;28;20488;-54
2022/03/04 04:07:17;;;;;;;29.52;15.95;;;-1.00;99.90;;;;;;5059215;28;20067;-55
2022/03/04 04:09:43;;;;;;;27.60;15.20;;;-1.10;99.90;;;;;;5058698;28;20442;-55
2022/03/04 04:12:09;;;;;;;26.70;14.77;;;-1.10;99.90;;;;;;5052490;28;20067;-54
2022/03/04 04:14:35;;;;;;;28.25;15.38;;;-1.10;99.90;;;;;;5047725;28;20093;-53
2022/03/04 04:17:01;;;;;;;28.25;15.50;;;-1.20;99.90;;;;;;5028016;28;20065;-53
2022/03/04 04:19:27;;;;;;;28.33;16.02;;;-1.20;99.90;;;;;;5035140;28;20530;-55
2022/03/04 04:21:53;;;;;;;28.08;16.02;;;-1.20;99.90;;;;;;5048746;28;20529;-55
2022/03/04 04:24:20;;;;;;;32.38;16.73;;;-1.20;99.90;;;;;;5026873;28;20059;-49
2022/03/04 04:26:46;;;;;;;27.48;15.18;;;-1.20;99.90;;;;;;5049491;28;20506;-55
2022/03/04 04:29:12;;;;;;;25.83;15.38;;;-1.30;99.90;;;;;;5050092;28;20048;-54
2022/03/04 04:31:40;;;;;;;28.75;15.55;;;-1.30;99.90;;;;;;5043023;28;20482;-55
2022/03/04 04:34:06;;;;;;;31.70;15.77;;;-1.30;99.90;;;;;;5022487;28;20056;-55
2022/03/04 04:36:32;;;;;;;29.52;16.73;;;-1.40;99.90;;;;;;5041749;28;20060;-54
2022/03/04 04:38:58;;;;;;;29.38;15.43;;;-1.40;99.90;;;;;;5052063;28;20055;-55
2022/03/04 04:41:25;;;;;;;31.58;17.52;;;-1.40;99.90;;;;;;5034462;28;20056;-54
2022/03/04 04:43:50;;;;;;;32.75;17.17;;;-1.40;99.90;;;;;;5061155;28;20128;-54
2022/03/04 04:46:16;;;;;;;34.78;17.65;;;-1.40;99.90;;;;;;5064719;28;20048;-54
2022/03/04 04:48:42;;;;;;;27.42;15.00;;;-1.40;99.90;;;;;;5057680;28;20453;-55
2022/03/04 04:51:08;;;;;;;29.73;15.63;;;-1.40;99.90;;;;;;5066498;28;20040;-53
2022/03/04 04:53:34;;;;;;;28.52;16.48;;;-1.40;99.90;;;;;;5038526;28;20053;-54
2022/03/04 04:56:00;;;;;;;30.67;15.70;;;-1.40;99.90;;;;;;5035862;28;20087;-55
2022/03/04 04:58:26;;;;;;;33.85;17.63;;;-1.50;99.90;;;;;;5045192;28;20800;-54
2022/03/04 05:00:55;;;;;;;31.25;16.85;;;-1.50;99.90;;;;;;5058997;28;20844;-54
2022/03/04 05:03:25;;;;;;;32.10;18.02;;;-1.40;99.90;;;;;;5050336;28;20064;-50
2022/03/04 05:05:55;;;;;;;33.63;17.52;;;-1.50;99.90;;;;;;5063422;28;20044;-54
2022/03/04 05:08:24;;;;;;;38.08;19.02;;;-1.50;99.90;;;;;;5041635;28;20052;-55
2022/03/04 05:10:50;;;;;;;31.02;17.08;;;-1.50;99.90;;;;;;5056570;28;20629;-50
2022/03/04 05:13:16;;;;;;;35.42;17.73;;;-1.50;99.90;;;;;;5067316;28;20593;-54
2022/03/04 05:15:41;;;;;;;40.70;19.80;;;-1.50;99.90;;;;;;5067585;28;20128;-55
2022/03/04 05:18:10;;;;;;;34.53;18.77;;;-1.50;99.90;;;;;;5039304;28;20064;-50
2022/03/04 05:20:37;;;;;;;32.88;17.85;;;-1.50;99.90;;;;;;5052922;28;20232;-54
2022/03/04 05:23:03;;;;;;;36.22;17.70;;;-1.50;99.90;;;;;;5042052;28;20045;-54
2022/03/04 05:25:29;;;;;;;31.83;17.33;;;-1.50;99.90;;;;;;5049889;28;20048;-54
2022/03/04 05:27:57;;;;;;;35.25;19.05;;;-1.50;99.90;;;;;;5058780;28;20414;-54
2022/03/04 05:30:24;;;;;;;35.80;18.75;;;-1.50;99.90;;;;;;5044027;28;20056;-55
2022/03/04 05:32:49;;;;;;;34.33;18.90;;;-1.50;99.90;;;;;;5054707;28;20048;-51
2022/03/04 05:35:15;;;;;;;33.55;18.08;;;-1.60;99.90;;;;;;5051288;28;20327;-50
2022/03/04 05:37:42;;;;;;;33.80;18.88;;;-1.60;99.90;;;;;;5049154;28;20048;-54
2022/03/04 05:40:08;;;;;;;33.67;18.13;;;-1.60;99.90;;;;;;5021784;28;20060;-55
2022/03/04 05:42:34;;;;;;;37.15;19.80;;;-1.60;99.90;;;;;;5050609;28;20546;-53
2022/03/04 05:45:00;;;;;;;38.63;19.27;;;-1.60;99.90;;;;;;5057017;28;20109;-54
2022/03/04 05:47:26;;;;;;;33.28;18.52;;;-1.60;99.90;;;;;;5053588;28;20132;-53
2022/03/04 05:49:51;;;;;;;35.83;19.25;;;-1.70;99.90;;;;;;5035448;28;20053;-54
2022/03/04 05:52:17;;;;;;;33.00;19.00;;;-1.70;99.90;;;;;;5039433;28;20367;-54
2022/03/04 05:54:43;;;;;;;32.47;18.20;;;-1.70;99.90;;;;;;5056729;28;20044;-53
2022/03/04 05:57:08;;;;;;;36.35;19.02;;;-1.80;99.90;;;;;;5035920;28;20056;-54
2022/03/04 05:59:34;;;;;;;39.72;21.13;;;-1.80;99.90;;;;;;5049436;28;20441;-54
2022/03/04 06:02:00;;;;;;;38.08;20.25;;;-1.80;99.90;;;;;;5058312;28;20056;-51
2022/03/04 06:04:25;;;;;;;38.80;20.10;;;-1.80;99.90;;;;;;5054391;28;20048;-55
2022/03/04 06:06:51;;;;;;;41.03;20.83;;;-1.80;99.90;;;;;;5036479;28;20087;-56
2022/03/04 06:09:17;;;;;;;38.95;20.48;;;-1.80;99.90;;;;;;5040822;28;20056;-56
2022/03/04 06:11:45;;;;;;;41.00;20.42;;;-1.80;99.90;;;;;;5045758;28;20512;-54
2022/03/04 06:14:11;;;;;;;41.42;21.42;;;-1.80;99.90;;;;;;5038799;28;20056;-53
2022/03/04 06:16:37;;;;;;;40.63;20.67;;;-1.80;99.90;;;;;;5036308;28;20410;-54
2022/03/04 06:19:02;;;;;;;42.65;20.83;;;-1.70;99.90;;;;;;5034712;28;20094;-53
2022/03/04 06:21:28;;;;;;;44.45;20.23;;;-1.70;99.90;;;;;;5051652;28;20091;-54
2022/03/04 06:23:54;;;;;;;42.78;20.85;;;-1.70;99.90;;;;;;5058409;28;20145;-54
2022/03/04 06:26:20;;;;;;;45.38;21.73;;;-1.70;99.90;;;;;;5048422;28;20052;-51
2022/03/04 06:28:46;;;;;;;41.67;21.48;;;-1.70;99.90;;;;;;5057420;28;20036;-53
2022/03/04 06:31:12;;;;;;;49.95;24.30;;;-1.60;99.90;;;;;;5061031;28;20679;-54
2022/03/04 06:33:42;;;;;;;51.05;24.30;;;-1.60;99.90;;;;;;5051071;28;20083;-54
2022/03/04 06:36:11;;;;;;;49.15;23.58;;;-1.60;99.90;;;;;;5037278;28;20755;-52
2022/03/04 06:38:41;;;;;;;48.28;23.25;;;-1.60;99.90;;;;;;5037181;28;20396;-54
2022/03/04 06:41:08;;;;;;;44.38;23.48;;;-1.60;99.90;;;;;;5037388;28;20156;-54
2022/03/04 06:43:34;;;;;;;44.85;22.98;;;-1.50;99.90;;;;;;5039966;28;20151;-54
2022/03/04 06:46:01;;;;;;;47.42;24.00;;;-1.50;99.90;;;;;;5041504;28;20307;-53
2022/03/04 06:48:28;;;;;;;50.92;25.27;;;-1.50;99.90;;;;;;5042628;28;20088;-54
2022/03/04 06:50:54;;;;;;;50.10;24.23;;;-1.40;99.90;;;;;;5040052;28;20059;-52
2022/03/04 06:53:21;;;;;;;54.92;27.02;;;-1.40;99.90;;;;;;5019275;28;20044;-50
2022/03/04 06:55:48;;;;;;;45.72;23.20;;;-1.30;99.90;;;;;;5052864;28;20757;-54
2022/03/04 06:58:14;;;;;;;43.67;23.98;;;-1.30;99.90;;;;;;5037746;28;20143;-54
2022/03/04 07:00:41;;;;;;;55.40;24.83;;;-1.30;99.90;;;;;;5054359;28;20071;-53
2022/03/04 07:03:08;;;;;;;51.00;26.80;;;-1.20;99.90;;;;;;5053939;28;20066;-53
2022/03/04 07:05:34;;;;;;;56.75;27.35;;;-1.20;99.90;;;;;;5052659;28;20490;-54
2022/03/04 07:07:59;;;;;;;49.55;25.00;;;-1.20;99.90;;;;;;5036135;28;20052;-54
2022/03/04 07:10:25;;;;;;;49.42;25.50;;;-1.30;99.90;;;;;;5053416;28;20410;-54
2022/03/04 07:12:52;;;;;;;53.25;25.75;;;-1.20;99.90;;;;;;5059777;28;20044;-53
2022/03/04 07:15:19;;;;;;;47.13;23.30;;;-1.10;99.90;;;;;;5037706;28;20044;-54
2022/03/04 07:17:49;;;;;;;49.90;26.05;;;-1.10;99.90;;;;;;5053705;28;20184;-51
2022/03/04 07:20:15;;;;;;;48.50;24.80;;;-1.00;99.90;;;;;;5037018;28;20233;-54
2022/03/04 07:22:42;;;;;;;48.05;25.15;;;-1.00;99.90;;;;;;5052308;28;20057;-54
2022/03/04 07:25:11;;;;;;;54.50;27.45;;;-1.00;99.90;;;;;;5038654;28;20064;-54
2022/03/04 07:27:37;;;;;;;50.13;25.48;;;-1.00;99.90;;;;;;5025891;28;20499;-55
2022/03/04 07:30:05;;;;;;;51.20;27.67;;;-0.90;99.90;;;;;;5050073;28;20049;-54
2022/03/04 07:32:32;;;;;;;51.15;25.55;;;-0.90;99.90;;;;;;5051391;28;20049;-54
2022/03/04 07:34:58;;;;;;;53.90;27.00;;;-0.90;99.90;;;;;;5039497;28;20131;-54
2022/03/04 07:37:25;;;;;;;47.75;25.77;;;-0.90;99.90;;;;;;5039865;28;20056;-53
2022/03/04 07:39:51;;;;;;;45.83;24.88;;;-0.80;99.90;;;;;;5028071;28;21272;-53
2022/03/04 07:42:17;;;;;;;55.38;27.05;;;-0.70;99.90;;;;;;5047564;28;20052;-54
2022/03/04 07:44:43;;;;;;;54.90;27.00;;;-0.80;99.90;;;;;;5049035;28;20094;-54
2022/03/04 07:47:12;;;;;;;47.95;24.90;;;-0.70;99.90;;;;;;5024356;28;20052;-46
2022/03/04 07:49:38;;;;;;;52.92;27.83;;;-0.70;99.90;;;;;;5031740;28;20167;-52
2022/03/04 07:52:04;;;;;;;83.85;27.25;;;-0.70;99.90;;;;;;5044546;28;20181;-55
2022/03/04 07:54:30;;;;;;;51.08;26.83;;;-0.70;99.90;;;;;;5062713;28;21000;-52
2022/03/04 07:56:55;;;;;;;51.80;27.15;;;-0.70;99.90;;;;;;5022681;28;20100;-54
2022/03/04 07:59:22;;;;;;;53.55;26.23;;;-0.70;99.90;;;;;;5041458;28;20642;-54
2022/03/04 08:01:48;;;;;;;48.67;25.20;;;-0.70;99.90;;;;;;5048896;28;20040;-54
2022/03/04 08:04:19;;;;;;;49.50;27.17;;;-0.60;99.90;;;;;;5039314;28;20110;-54
2022/03/04 08:06:45;;;;;;;48.13;26.55;;;-0.60;99.90;;;;;;5044959;28;20447;-52
2022/03/04 08:09:11;;;;;;;51.67;27.75;;;-0.50;99.90;;;;;;5051285;28;20053;-52
2022/03/04 08:11:37;;;;;;;46.67;26.38;;;-0.50;99.90;;;;;;5051061;28;20131;-53
2022/03/04 08:14:03;;;;;;;49.13;27.40;;;-0.40;99.90;;;;;;5052055;28;20052;-54
2022/03/04 08:16:31;;;;;;;50.17;25.92;;;-0.30;99.90;;;;;;5043567;28;20045;-54
2022/03/04 08:18:58;;;;;;;49.58;27.20;;;-0.20;99.90;;;;;;5063748;28;20048;-55
2022/03/04 08:21:25;;;;;;;47.03;24.77;;;-0.10;99.90;;;;;;5034691;28;20061;-55
2022/03/04 08:23:51;;;;;;;50.15;26.50;;;-0.10;99.90;;;;;;5060277;28;20060;-56
2022/03/04 08:26:16;;;;;;;43.95;24.55;;;-0.10;99.90;;;;;;5038357;28;20049;-55
2022/03/04 08:28:42;;;;;;;41.67;25.65;;;0.00;99.90;;;;;;5058211;28;20123;-55
2022/03/04 08:31:11;;;;;;;42.88;24.42;;;0.00;99.90;;;;;;5030669;28;20084;-53
2022/03/04 08:33:38;;;;;;;42.92;25.23;;;0.00;99.90;;;;;;5040627;28;20163;-54
2022/03/04 08:36:05;;;;;;;49.78;26.95;;;0.00;99.90;;;;;;5032786;28;20188;-54
2022/03/04 08:38:31;;;;;;;42.35;24.20;;;0.00;99.90;;;;;;5049112;28;20135;-53
2022/03/04 08:40:56;;;;;;;64.07;27.35;;;0.00;99.90;;;;;;5047702;28;20083;-54
2022/03/04 08:43:22;;;;;;;52.38;27.52;;;0.00;99.90;;;;;;5035307;28;20632;-53
2022/03/04 08:45:48;;;;;;;45.33;25.27;;;0.00;99.90;;;;;;5056613;28;20515;-55
2022/03/04 08:48:14;;;;;;;45.88;26.40;;;0.00;99.90;;;;;;5048073;28;20083;-54
2022/03/04 08:50:39;;;;;;;43.10;26.15;;;0.10;99.90;;;;;;5046490;28;20421;-51
2022/03/04 08:53:05;;;;;;;52.55;27.10;;;0.20;99.90;;;;;;5034354;28;20109;-54
2022/03/04 08:55:31;;;;;;;46.35;26.42;;;0.20;99.90;;;;;;5036949;28;20063;-55
2022/03/04 08:57:58;;;;;;;48.55;27.08;;;0.30;99.90;;;;;;5034730;28;20129;-54
2022/03/04 09:00:26;;;;;;;48.08;27.63;;;0.40;99.90;;;;;;5048296;28;20133;-54
2022/03/04 09:02:52;;;;;;;47.70;27.17;;;0.40;99.90;;;;;;5028917;28;20041;-54
2022/03/04 09:05:17;;;;;;;42.58;25.85;;;0.50;99.90;;;;;;5048066;28;20059;-55
2022/03/04 09:07:43;;;;;;;43.67;25.83;;;0.60;99.90;;;;;;5053114;28;20052;-54
2022/03/04 09:10:10;;;;;;;37.53;23.65;;;0.70;99.90;;;;;;5056158;28;20040;-50
2022/03/04 09:12:36;;;;;;;42.10;24.65;;;0.70;99.90;;;;;;5033528;28;20484;-55
2022/03/04 09:15:03;;;;;;;43.67;26.15;;;0.70;99.90;;;;;;5044896;28;20172;-54
2022/03/04 09:17:30;;;;;;;37.97;24.10;;;0.60;99.90;;;;;;5047506;28;20147;-55
2022/03/04 09:19:55;;;;;;;42.20;24.67;;;0.70;99.90;;;;;;5048538;28;20156;-54
2022/03/04 09:22:21;;;;;;;41.22;24.50;;;0.70;99.90;;;;;;5057915;28;20102;-54
2022/03/04 09:24:47;;;;;;;43.45;25.35;;;0.70;99.90;;;;;;5048422;28;20103;-55
2022/03/04 09:27:13;;;;;;;42.30;24.92;;;0.70;99.90;;;;;;5056416;28;20052;-54
2022/03/04 09:29:39;;;;;;;40.72;24.73;;;0.90;99.90;;;;;;5048754;28;20809;-54
2022/03/04 09:32:05;;;;;;;44.22;25.20;;;1.10;99.90;;;;;;5051368;28;20054;-55
2022/03/04 09:34:31;;;;;;;36.70;23.77;;;1.40;99.90;;;;;;5051651;28;20055;-54
2022/03/04 09:36:57;;;;;;;39.92;24.42;;;1.70;99.90;;;;;;5049926;28;20468;-53
2022/03/04 09:39:22;;;;;;;39.88;25.15;;;1.60;99.90;;;;;;5049497;28;20049;-55
2022/03/04 09:41:48;;;;;;;37.05;23.08;;;1.60;99.90;;;;;;5052986;28;20051;-55
2022/03/04 09:44:15;;;;;;;35.70;22.77;;;1.50;99.90;;;;;;5047334;28;20059;-55
2022/03/04 09:46:42;;;;;;;39.47;24.25;;;1.40;99.90;;;;;;5047672;28;20033;-53
2022/03/04 09:49:09;;;;;;;37.83;23.48;;;1.40;99.90;;;;;;5053567;28;20461;-53
2022/03/04 09:51:35;;;;;;;42.13;25.42;;;1.30;99.90;;;;;;5054122;28;20071;-55
2022/03/04 09:54:02;;;;;;;36.50;24.98;;;1.30;99.90;;;;;;5056449;28;20143;-53
2022/03/04 09:56:28;;;;;;;37.53;23.30;;;1.20;99.90;;;;;;5036232;28;20517;-55
2022/03/04 09:58:53;;;;;;;32.97;22.52;;;1.20;99.90;;;;;;5053920;28;20573;-55
2022/03/04 10:01:22;;;;;;;37.65;22.70;;;1.20;99.90;;;;;;5038457;28;20160;-51
2022/03/04 10:03:53;;;;;;;41.42;24.77;;;1.20;99.90;;;;;;5047253;28;20057;-55
2022/03/04 10:06:20;;;;;;;38.67;23.48;;;1.30;99.90;;;;;;5050422;28;20040;-55
2022/03/04 10:08:49;;;;;;;34.60;22.33;;;1.50;99.90;;;;;;5050897;28;20368;-55
2022/03/04 10:11:25;;;;;;;38.67;23.85;;;1.60;99.90;;;;;;5049267;28;20048;-55
2022/03/04 10:13:55;;;;;;;34.83;22.27;;;1.60;99.90;;;;;;5047738;28;20044;-55
2022/03/04 10:16:28;;;;;;;36.25;23.20;;;1.70;99.90;;;;;;5045237;28;20456;-53
2022/03/04 10:19:14;;;;;;;34.35;22.92;;;1.80;99.90;;;;;;5058577;28;20091;-56
2022/03/04 10:21:51;;;;;;;37.08;23.15;;;1.90;99.90;;;;;;5032339;28;20167;-55
2022/03/04 10:24:33;;;;;;;37.28;22.98;;;2.00;99.90;;;;;;5047182;28;20345;-57
2022/03/04 10:27:17;;;;;;;36.22;22.33;;;2.30;99.90;;;;;;5029241;28;20052;-56
2022/03/04 10:29:48;;;;;;;33.90;22.90;;;2.40;99.90;;;;;;5049931;28;20048;-56
2022/03/04 10:32:26;;;;;;;31.08;19.58;;;2.50;99.90;;;;;;5037555;28;20566;-56
2022/03/04 10:34:58;;;;;;;27.80;19.00;;;2.60;99.90;;;;;;5043286;28;20044;-56
2022/03/04 10:37:44;;;;;;;27.35;17.67;;;2.60;99.90;;;;;;5043409;28;20080;-56
2022/03/04 10:40:15;;;;;;;28.83;19.23;;;2.80;99.90;;;;;;5037940;28;20091;-51
2022/03/04 10:42:50;;;;;;;26.85;18.33;;;2.90;99.90;;;;;;5044734;28;20051;-48
2022/03/04 10:45:31;;;;;;;24.58;17.50;;;3.00;99.90;;;;;;5042554;28;20520;-55
2022/03/04 10:48:08;;;;;;;22.95;17.08;;;3.10;99.90;;;;;;5030962;28;20388;-56
2022/03/04 10:50:44;;;;;;;25.27;18.33;;;3.30;99.90;;;;;;5021140;28;20044;-57
2022/03/04 10:53:30;;;;;;;27.05;18.98;;;3.40;99.90;;;;;;5038956;28;20549;-56
2022/03/04 10:55:58;;;;;;;26.90;18.60;;;3.50;99.90;;;;;;5035118;28;20049;-58
2022/03/04 10:58:24;;;;;;;25.48;18.02;;;3.60;99.90;;;;;;5052346;28;20064;-56
2022/03/04 11:00:50;;;;;;;23.02;17.00;;;3.70;99.90;;;;;;5048342;28;20044;-53
2022/03/04 11:03:19;;;;;;;27.35;17.10;;;3.80;99.90;;;;;;5040347;28;20402;-57
2022/03/04 11:05:46;;;;;;;24.42;18.38;;;4.00;99.90;;;;;;5031059;28;20056;-57
2022/03/04 11:08:13;;;;;;;26.00;17.45;;;4.00;99.90;;;;;;5040133;28;20585;-57
2022/03/04 11:10:40;;;;;;;25.65;18.67;;;4.10;99.90;;;;;;5040986;28;20087;-53
2022/03/04 11:13:08;;;;;;;24.15;16.38;;;4.10;99.90;;;;;;5049766;28;20153;-56
2022/03/04 11:15:35;;;;;;;24.08;16.75;;;4.20;99.90;;;;;;5034019;28;20060;-58
2022/03/04 11:18:04;;;;;;;22.98;17.17;;;4.20;99.90;;;;;;5037186;28;20057;-57
2022/03/04 11:20:30;;;;;;;25.30;17.55;;;4.30;99.90;;;;;;5060385;28;20485;-57
2022/03/04 11:22:56;;;;;;;26.70;17.92;;;4.40;99.90;;;;;;5040167;28;20049;-58
2022/03/04 11:25:22;;;;;;;27.25;19.05;;;4.50;99.90;;;;;;5061175;28;20044;-57
2022/03/04 11:27:52;;;;;;;24.38;18.15;;;4.60;99.90;;;;;;5055670;28;20127;-57
2022/03/04 11:30:34;;;;;;;24.27;16.10;;;4.60;99.90;;;;;;5025105;28;20052;-57
2022/03/04 11:33:05;;;;;;;28.20;18.13;;;4.60;99.90;;;;;;5031889;28;20052;-57
2022/03/04 11:36:02;;;;;;;22.10;16.50;;;4.70;99.90;;;;;;5030539;28;20060;-56
2022/03/04 11:38:57;;;;;;;22.25;17.30;;;4.80;99.90;;;;;;5051907;28;20481;-59
2022/03/04 11:41:37;;;;;;;26.58;18.58;;;4.90;99.90;;;;;;5048670;28;20049;-57
2022/03/04 11:44:25;;;;;;;24.35;17.40;;;5.10;99.90;;;;;;5032817;28;20157;-58
2022/03/04 11:47:02;;;;;;;25.77;18.75;;;5.20;99.90;;;;;;5040920;28;20044;-57
2022/03/04 11:49:46;;;;;;;22.73;16.50;;;5.30;99.90;;;;;;5041002;28;20678;-58
2022/03/04 11:52:19;;;;;;;24.30;17.65;;;5.40;99.90;;;;;;5049378;28;20628;-57
2022/03/04 11:54:52;;;;;;;24.48;16.20;;;5.40;99.90;;;;;;5048956;28;20518;-58
2022/03/04 11:57:21;;;;;;;24.13;18.23;;;5.50;99.90;;;;;;5031423;28;20136;-59
2022/03/04 11:59:55;;;;;;;17.98;15.23;;;5.60;99.90;;;;;;5032857;28;20383;-58
2022/03/04 12:02:46;;;;;;;22.40;16.85;;;5.70;99.90;;;;;;5049497;28;20079;-59
2022/03/04 12:05:15;;;;;;;21.55;16.92;;;5.80;99.90;;;;;;5028935;28;20325;-58
2022/03/04 12:07:42;;;;;;;23.58;17.20;;;5.80;99.90;;;;;;5033847;28;20041;-59
2022/03/04 12:10:10;;;;;;;19.42;14.57;;;5.90;99.90;;;;;;5029659;28;20473;-59
2022/03/04 12:12:36;;;;;;;19.17;15.00;;;6.00;99.90;;;;;;5052802;28;20048;-60
2022/03/04 12:15:17;;;;;;;21.25;14.50;;;6.00;99.90;;;;;;5048483;28;20550;-59
2022/03/04 12:18:05;;;;;;;20.25;14.52;;;6.00;99.90;;;;;;5035942;28;20582;-59
2022/03/04 12:20:40;;;;;;;22.73;16.58;;;6.00;99.90;;;;;;5058766;28;20052;-59
2022/03/04 12:23:11;;;;;;;22.58;16.45;;;6.10;99.90;;;;;;5034360;28;20372;-60
2022/03/04 12:26:00;;;;;;;23.83;17.73;;;6.10;99.90;;;;;;5047671;28;20060;-59
2022/03/04 12:28:39;;;;;;;20.80;15.82;;;6.10;99.90;;;;;;4932541;29;20171;-59
2022/03/04 12:31:05;;;;;;;22.20;16.45;;;6.20;99.90;;;;;;4940563;28;20066;-59
2022/03/04 12:33:45;;;;;;;22.70;17.05;;;6.20;99.90;;;;;;4954547;28;20066;-60